sensor_id;sensor_type;location;lat;lon;timestamp;P1;durP1;ratioP1;P2;durP2;ratioP2
60257;SDS011;46115;44.484;11.314;2023-05-10T00:03:32;13.95;;;9.55;;
60257;SDS011;46115;44.484;11.314;2023-05-10T00:07:35;12.48;;;9.90;;
60257;SDS011;46115;44.484;11.314;2023-05-10T00:11:37;14.98;;;9.55;;
60257;SDS011;46115;44.484;11.314;2023-05-10T00:15:41;14.63;;;9.70;;
60257;SDS011;46115;44.484;11.314;2023-05-10T00:19:43;15.35;;;9.55;;
60257;SDS011;46115;44.484;11.314;2023-05-10T00:23:46;13.80;;;10.73;;
60257;SDS011;46115;44.484;11.314;2023-05-10T00:27:48;17.95;;;10.20;;
60257;SDS011;46115;44.484;11.314;2023-05-10T00:31:52;12.65;;;9.30;;
60257;SDS011;46115;44.484;11.314;2023-05-10T00:35:54;14.98;;;10.02;;
60257;SDS011;46115;44.484;11.314;2023-05-10T00:39:57;11.55;;;10.32;;
60257;SDS011;46115;44.484;11.314;2023-05-10T00:43:59;14.32;;;9.95;;
60257;SDS011;46115;44.484;11.314;2023-05-10T00:48:05;15.52;;;10.82;;
60257;SDS011;46115;44.484;11.314;2023-05-10T00:52:07;19.33;;;11.77;;
60257;SDS011;46115;44.484;11.314;2023-05-10T00:56:10;14.40;;;11.07;;
60257;SDS011;46115;44.484;11.314;2023-05-10T01:00:13;23.63;;;11.48;;
60257;SDS011;46115;44.484;11.314;2023-05-10T01:04:20;16.13;;;11.80;;
60257;SDS011;46115;44.484;11.314;2023-05-10T01:08:26;15.02;;;11.40;;
60257;SDS011;46115;44.484;11.314;2023-05-10T01:12:30;12.88;;;11.43;;
60257;SDS011;46115;44.484;11.314;2023-05-10T01:16:33;15.73;;;11.68;;
60257;SDS011;46115;44.484;11.314;2023-05-10T01:20:40;16.85;;;12.07;;
60257;SDS011;46115;44.484;11.314;2023-05-10T01:25:03;13.57;;;11.50;;
60257;SDS011;46115;44.484;11.314;2023-05-10T01:29:40;14.93;;;11.20;;
60257;SDS011;46115;44.484;11.314;2023-05-10T01:34:12;16.50;;;11.02;;
60257;SDS011;46115;44.484;11.314;2023-05-10T01:38:20;13.55;;;11.50;;
60257;SDS011;46115;44.484;11.314;2023-05-10T01:42:32;12.73;;;10.57;;
60257;SDS011;46115;44.484;11.314;2023-05-10T01:46:39;10.18;;;9.18;;
60257;SDS011;46115;44.484;11.314;2023-05-10T01:50:43;12.38;;;9.45;;
60257;SDS011;46115;44.484;11.314;2023-05-10T01:54:49;12.02;;;10.18;;
60257;SDS011;46115;44.484;11.314;2023-05-10T01:58:55;13.77;;;10.68;;
60257;SDS011;46115;44.484;11.314;2023-05-10T02:03:01;16.85;;;10.68;;
60257;SDS011;46115;44.484;11.314;2023-05-10T02:07:09;14.50;;;10.65;;
60257;SDS011;46115;44.484;11.314;2023-05-10T02:11:14;12.93;;;10.48;;
60257;SDS011;46115;44.484;11.314;2023-05-10T02:15:18;11.75;;;10.50;;
60257;SDS011;46115;44.484;11.314;2023-05-10T02:19:22;12.32;;;10.80;;
60257;SDS011;46115;44.484;11.314;2023-05-10T02:23:27;12.80;;;10.50;;
60257;SDS011;46115;44.484;11.314;2023-05-10T02:27:31;14.40;;;10.23;;
60257;SDS011;46115;44.484;11.314;2023-05-10T02:31:34;14.77;;;10.23;;
60257;SDS011;46115;44.484;11.314;2023-05-10T02:35:39;13.45;;;9.85;;
60257;SDS011;46115;44.484;11.314;2023-05-10T02:39:44;10.68;;;8.57;;
60257;SDS011;46115;44.484;11.314;2023-05-10T02:43:49;11.13;;;8.68;;
60257;SDS011;46115;44.484;11.314;2023-05-10T02:47:52;11.10;;;7.80;;
60257;SDS011;46115;44.484;11.314;2023-05-10T02:51:56;11.80;;;7.30;;
60257;SDS011;46115;44.484;11.314;2023-05-10T02:56:07;9.57;;;7.38;;
60257;SDS011;46115;44.484;11.314;2023-05-10T03:00:15;12.65;;;7.90;;
60257;SDS011;46115;44.484;11.314;2023-05-10T03:04:18;11.70;;;8.88;;
60257;SDS011;46115;44.484;11.314;2023-05-10T03:08:20;11.13;;;7.80;;
60257;SDS011;46115;44.484;11.314;2023-05-10T03:12:27;12.35;;;8.70;;
60257;SDS011;46115;44.484;11.314;2023-05-10T03:16:41;12.82;;;8.82;;
60257;SDS011;46115;44.484;11.314;2023-05-10T03:20:48;10.55;;;8.98;;
60257;SDS011;46115;44.484;11.314;2023-05-10T03:24:53;15.25;;;8.43;;
60257;SDS011;46115;44.484;11.314;2023-05-10T03:29:01;11.20;;;8.00;;
60257;SDS011;46115;44.484;11.314;2023-05-10T03:33:06;12.90;;;9.50;;
60257;SDS011;46115;44.484;11.314;2023-05-10T03:37:12;14.43;;;9.13;;
60257;SDS011;46115;44.484;11.314;2023-05-10T03:41:15;13.43;;;9.63;;
60257;SDS011;46115;44.484;11.314;2023-05-10T03:45:19;13.45;;;9.40;;
60257;SDS011;46115;44.484;11.314;2023-05-10T03:49:21;9.95;;;8.25;;
60257;SDS011;46115;44.484;11.314;2023-05-10T03:53:24;11.70;;;7.90;;
60257;SDS011;46115;44.484;11.314;2023-05-10T03:57:27;9.05;;;7.32;;
60257;SDS011;46115;44.484;11.314;2023-05-10T04:01:31;9.70;;;7.30;;
60257;SDS011;46115;44.484;11.314;2023-05-10T04:05:33;7.30;;;6.40;;
60257;SDS011;46115;44.484;11.314;2023-05-10T04:09:36;8.43;;;7.00;;
60257;SDS011;46115;44.484;11.314;2023-05-10T04:13:38;8.73;;;6.43;;
60257;SDS011;46115;44.484;11.314;2023-05-10T04:17:42;7.22;;;6.53;;
60257;SDS011;46115;44.484;11.314;2023-05-10T04:21:44;8.32;;;6.97;;
60257;SDS011;46115;44.484;11.314;2023-05-10T04:25:47;7.80;;;6.97;;
60257;SDS011;46115;44.484;11.314;2023-05-10T04:29:49;8.63;;;7.40;;
60257;SDS011;46115;44.484;11.314;2023-05-10T04:33:53;9.35;;;7.03;;
60257;SDS011;46115;44.484;11.314;2023-05-10T04:37:55;8.65;;;7.18;;
60257;SDS011;46115;44.484;11.314;2023-05-10T04:41:57;11.35;;;7.25;;
60257;SDS011;46115;44.484;11.314;2023-05-10T04:46:00;11.75;;;8.13;;
60257;SDS011;46115;44.484;11.314;2023-05-10T04:50:04;11.35;;;7.47;;
60257;SDS011;46115;44.484;11.314;2023-05-10T04:54:08;12.35;;;7.60;;
60257;SDS011;46115;44.484;11.314;2023-05-10T04:58:11;9.40;;;7.90;;
60257;SDS011;46115;44.484;11.314;2023-05-10T05:02:13;8.55;;;7.10;;
60257;SDS011;46115;44.484;11.314;2023-05-10T05:06:17;9.55;;;7.65;;
60257;SDS011;46115;44.484;11.314;2023-05-10T05:10:19;9.07;;;7.03;;
60257;SDS011;46115;44.484;11.314;2023-05-10T05:14:21;9.60;;;7.30;;
60257;SDS011;46115;44.484;11.314;2023-05-10T05:18:25;9.30;;;7.05;;
60257;SDS011;46115;44.484;11.314;2023-05-10T05:22:29;8.98;;;7.20;;
60257;SDS011;46115;44.484;11.314;2023-05-10T05:26:31;8.75;;;6.90;;
60257;SDS011;46115;44.484;11.314;2023-05-10T05:30:34;8.45;;;7.15;;
60257;SDS011;46115;44.484;11.314;2023-05-10T05:34:36;9.93;;;7.00;;
60257;SDS011;46115;44.484;11.314;2023-05-10T05:38:40;7.53;;;6.72;;
60257;SDS011;46115;44.484;11.314;2023-05-10T05:42:42;9.60;;;7.38;;
60257;SDS011;46115;44.484;11.314;2023-05-10T05:46:45;9.82;;;7.80;;
60257;SDS011;46115;44.484;11.314;2023-05-10T05:50:47;8.60;;;7.68;;
60257;SDS011;46115;44.484;11.314;2023-05-10T05:54:51;7.90;;;6.95;;
60257;SDS011;46115;44.484;11.314;2023-05-10T05:58:53;10.18;;;6.75;;
60257;SDS011;46115;44.484;11.314;2023-05-10T06:02:55;9.93;;;7.88;;
60257;SDS011;46115;44.484;11.314;2023-05-10T06:06:58;9.30;;;7.38;;
60257;SDS011;46115;44.484;11.314;2023-05-10T06:11:01;7.90;;;7.05;;
60257;SDS011;46115;44.484;11.314;2023-05-10T06:15:05;9.38;;;7.55;;
60257;SDS011;46115;44.484;11.314;2023-05-10T06:19:08;10.23;;;7.95;;
60257;SDS011;46115;44.484;11.314;2023-05-10T06:23:10;8.85;;;7.95;;
60257;SDS011;46115;44.484;11.314;2023-05-10T06:27:14;8.32;;;7.50;;
60257;SDS011;46115;44.484;11.314;2023-05-10T06:31:16;9.77;;;8.75;;
60257;SDS011;46115;44.484;11.314;2023-05-10T06:35:20;10.40;;;8.23;;
60257;SDS011;46115;44.484;11.314;2023-05-10T06:39:22;10.90;;;9.25;;
60257;SDS011;46115;44.484;11.314;2023-05-10T06:43:26;10.95;;;8.95;;
60257;SDS011;46115;44.484;11.314;2023-05-10T06:47:29;12.20;;;8.57;;
60257;SDS011;46115;44.484;11.314;2023-05-10T06:51:32;12.63;;;8.55;;
60257;SDS011;46115;44.484;11.314;2023-05-10T06:55:34;12.80;;;10.38;;
60257;SDS011;46115;44.484;11.314;2023-05-10T06:59:38;8.90;;;8.00;;
60257;SDS011;46115;44.484;11.314;2023-05-10T07:03:41;11.55;;;8.65;;
60257;SDS011;46115;44.484;11.314;2023-05-10T07:07:43;10.65;;;9.27;;
60257;SDS011;46115;44.484;11.314;2023-05-10T07:11:46;9.80;;;8.07;;
60257;SDS011;46115;44.484;11.314;2023-05-10T07:15:49;9.27;;;8.23;;
60257;SDS011;46115;44.484;11.314;2023-05-10T07:19:52;10.45;;;8.55;;
60257;SDS011;46115;44.484;11.314;2023-05-10T07:23:54;11.02;;;8.38;;
60257;SDS011;46115;44.484;11.314;2023-05-10T07:27:56;9.23;;;7.65;;
60257;SDS011;46115;44.484;11.314;2023-05-10T07:32:00;9.40;;;6.72;;
60257;SDS011;46115;44.484;11.314;2023-05-10T07:36:03;10.70;;;7.45;;
60257;SDS011;46115;44.484;11.314;2023-05-10T07:40:06;8.25;;;6.60;;
60257;SDS011;46115;44.484;11.314;2023-05-10T07:44:09;8.55;;;7.07;;
60257;SDS011;46115;44.484;11.314;2023-05-10T07:48:13;7.50;;;6.70;;
60257;SDS011;46115;44.484;11.314;2023-05-10T07:52:15;7.50;;;6.80;;
60257;SDS011;46115;44.484;11.314;2023-05-10T07:56:22;7.10;;;6.13;;
60257;SDS011;46115;44.484;11.314;2023-05-10T08:00:27;7.35;;;6.40;;
60257;SDS011;46115;44.484;11.314;2023-05-10T08:04:31;7.90;;;7.15;;
60257;SDS011;46115;44.484;11.314;2023-05-10T08:08:33;8.43;;;5.70;;
60257;SDS011;46115;44.484;11.314;2023-05-10T08:12:36;7.75;;;6.45;;
60257;SDS011;46115;44.484;11.314;2023-05-10T08:16:39;7.32;;;6.05;;
60257;SDS011;46115;44.484;11.314;2023-05-10T08:20:43;7.43;;;6.55;;
60257;SDS011;46115;44.484;11.314;2023-05-10T08:24:45;7.20;;;6.40;;
60257;SDS011;46115;44.484;11.314;2023-05-10T08:28:48;7.95;;;6.53;;
60257;SDS011;46115;44.484;11.314;2023-05-10T08:32:50;6.70;;;6.10;;
60257;SDS011;46115;44.484;11.314;2023-05-10T08:36:54;8.43;;;6.25;;
60257;SDS011;46115;44.484;11.314;2023-05-10T08:40:57;6.97;;;5.50;;
60257;SDS011;46115;44.484;11.314;2023-05-10T08:45:01;6.55;;;5.47;;
60257;SDS011;46115;44.484;11.314;2023-05-10T08:49:05;6.60;;;5.65;;
60257;SDS011;46115;44.484;11.314;2023-05-10T08:53:11;7.03;;;6.32;;
60257;SDS011;46115;44.484;11.314;2023-05-10T08:57:14;6.90;;;4.50;;
60257;SDS011;46115;44.484;11.314;2023-05-10T09:01:17;5.50;;;5.00;;
60257;SDS011;46115;44.484;11.314;2023-05-10T09:05:20;7.53;;;5.50;;
60257;SDS011;46115;44.484;11.314;2023-05-10T09:09:24;6.18;;;4.85;;
60257;SDS011;46115;44.484;11.314;2023-05-10T09:13:27;5.93;;;5.28;;
60257;SDS011;46115;44.484;11.314;2023-05-10T09:17:30;5.85;;;5.25;;
60257;SDS011;46115;44.484;11.314;2023-05-10T09:21:34;7.43;;;6.50;;
60257;SDS011;46115;44.484;11.314;2023-05-10T09:25:40;8.07;;;6.43;;
60257;SDS011;46115;44.484;11.314;2023-05-10T09:29:43;6.78;;;6.13;;
60257;SDS011;46115;44.484;11.314;2023-05-10T09:33:46;7.40;;;6.45;;
60257;SDS011;46115;44.484;11.314;2023-05-10T09:37:50;6.30;;;5.60;;
60257;SDS011;46115;44.484;11.314;2023-05-10T09:41:55;8.65;;;6.50;;
60257;SDS011;46115;44.484;11.314;2023-05-10T09:45:58;7.15;;;6.45;;
60257;SDS011;46115;44.484;11.314;2023-05-10T09:50:01;6.90;;;6.25;;
60257;SDS011;46115;44.484;11.314;2023-05-10T09:54:08;10.30;;;7.93;;
60257;SDS011;46115;44.484;11.314;2023-05-10T09:58:13;9.55;;;8.05;;
60257;SDS011;46115;44.484;11.314;2023-05-10T10:02:16;9.40;;;7.30;;
60257;SDS011;46115;44.484;11.314;2023-05-10T10:06:19;6.75;;;5.82;;
60257;SDS011;46115;44.484;11.314;2023-05-10T10:10:21;5.63;;;5.03;;
60257;SDS011;46115;44.484;11.314;2023-05-10T10:14:25;6.50;;;4.85;;
60257;SDS011;46115;44.484;11.314;2023-05-10T10:18:28;7.75;;;4.80;;
60257;SDS011;46115;44.484;11.314;2023-05-10T10:22:32;6.35;;;5.03;;
60257;SDS011;46115;44.484;11.314;2023-05-10T10:26:35;5.40;;;4.60;;
60257;SDS011;46115;44.484;11.314;2023-05-10T10:30:41;5.07;;;4.57;;
60257;SDS011;46115;44.484;11.314;2023-05-10T10:34:45;5.22;;;4.38;;
60257;SDS011;46115;44.484;11.314;2023-05-10T10:38:57;6.45;;;5.13;;
60257;SDS011;46115;44.484;11.314;2023-05-10T10:47:27;7.95;;;5.65;;
60257;SDS011;46115;44.484;11.314;2023-05-10T10:51:36;5.85;;;4.72;;
60257;SDS011;46115;44.484;11.314;2023-05-10T10:55:45;5.38;;;4.88;;
60257;SDS011;46115;44.484;11.314;2023-05-10T10:59:48;8.57;;;6.55;;
60257;SDS011;46115;44.484;11.314;2023-05-10T11:08:25;8.88;;;5.35;;
60257;SDS011;46115;44.484;11.314;2023-05-10T11:12:29;6.47;;;5.40;;
60257;SDS011;46115;44.484;11.314;2023-05-10T11:16:40;6.80;;;5.20;;
60257;SDS011;46115;44.484;11.314;2023-05-10T11:20:45;7.32;;;5.47;;
60257;SDS011;46115;44.484;11.314;2023-05-10T11:25:01;6.85;;;4.63;;
60257;SDS011;46115;44.484;11.314;2023-05-10T11:29:03;6.32;;;5.32;;
60257;SDS011;46115;44.484;11.314;2023-05-10T11:33:06;7.30;;;4.90;;
60257;SDS011;46115;44.484;11.314;2023-05-10T11:37:10;6.70;;;4.72;;
60257;SDS011;46115;44.484;11.314;2023-05-10T11:41:16;8.30;;;5.22;;
60257;SDS011;46115;44.484;11.314;2023-05-10T11:45:23;11.45;;;5.25;;
60257;SDS011;46115;44.484;11.314;2023-05-10T11:49:25;9.77;;;4.80;;
60257;SDS011;46115;44.484;11.314;2023-05-10T11:53:31;6.18;;;4.65;;
60257;SDS011;46115;44.484;11.314;2023-05-10T11:57:35;6.70;;;5.50;;
60257;SDS011;46115;44.484;11.314;2023-05-10T12:01:39;5.20;;;4.70;;
60257;SDS011;46115;44.484;11.314;2023-05-10T12:05:41;5.43;;;4.50;;
60257;SDS011;46115;44.484;11.314;2023-05-10T12:09:48;5.38;;;4.63;;
60257;SDS011;46115;44.484;11.314;2023-05-10T12:14:04;6.38;;;4.25;;
60257;SDS011;46115;44.484;11.314;2023-05-10T12:18:07;5.43;;;4.00;;
60257;SDS011;46115;44.484;11.314;2023-05-10T12:22:11;4.45;;;3.70;;
60257;SDS011;46115;44.484;11.314;2023-05-10T12:26:15;4.05;;;3.60;;
60257;SDS011;46115;44.484;11.314;2023-05-10T12:30:20;4.22;;;3.63;;
60257;SDS011;46115;44.484;11.314;2023-05-10T12:34:24;3.70;;;3.28;;
60257;SDS011;46115;44.484;11.314;2023-05-10T12:38:28;5.28;;;3.50;;
60257;SDS011;46115;44.484;11.314;2023-05-10T12:42:35;4.07;;;3.10;;
60257;SDS011;46115;44.484;11.314;2023-05-10T12:46:37;3.53;;;3.17;;
60257;SDS011;46115;44.484;11.314;2023-05-10T12:50:40;3.33;;;3.03;;
60257;SDS011;46115;44.484;11.314;2023-05-10T12:54:42;8.63;;;3.58;;
60257;SDS011;46115;44.484;11.314;2023-05-10T12:58:46;4.13;;;3.42;;
60257;SDS011;46115;44.484;11.314;2023-05-10T13:02:48;3.67;;;3.20;;
60257;SDS011;46115;44.484;11.314;2023-05-10T13:06:51;5.75;;;3.65;;
60257;SDS011;46115;44.484;11.314;2023-05-10T13:10:53;3.70;;;3.30;;
60257;SDS011;46115;44.484;11.314;2023-05-10T13:14:57;5.25;;;3.03;;
60257;SDS011;46115;44.484;11.314;2023-05-10T13:19:00;3.53;;;3.17;;
60257;SDS011;46115;44.484;11.314;2023-05-10T13:23:02;4.72;;;3.33;;
60257;SDS011;46115;44.484;11.314;2023-05-10T13:27:04;3.33;;;2.97;;
60257;SDS011;46115;44.484;11.314;2023-05-10T13:31:08;4.00;;;3.08;;
60257;SDS011;46115;44.484;11.314;2023-05-10T13:35:11;3.33;;;2.97;;
60257;SDS011;46115;44.484;11.314;2023-05-10T13:39:13;4.80;;;3.13;;
60257;SDS011;46115;44.484;11.314;2023-05-10T13:43:15;4.85;;;3.13;;
60257;SDS011;46115;44.484;11.314;2023-05-10T13:47:19;4.85;;;3.65;;
60257;SDS011;46115;44.484;11.314;2023-05-10T13:51:22;4.15;;;3.25;;
60257;SDS011;46115;44.484;11.314;2023-05-10T13:55:25;3.88;;;3.17;;
60257;SDS011;46115;44.484;11.314;2023-05-10T13:59:28;7.95;;;3.30;;
60257;SDS011;46115;44.484;11.314;2023-05-10T14:03:33;4.13;;;3.67;;
60257;SDS011;46115;44.484;11.314;2023-05-10T14:07:36;4.55;;;3.33;;
60257;SDS011;46115;44.484;11.314;2023-05-10T14:11:38;4.88;;;3.50;;
60257;SDS011;46115;44.484;11.314;2023-05-10T14:15:44;5.60;;;2.83;;
60257;SDS011;46115;44.484;11.314;2023-05-10T14:19:48;3.92;;;3.53;;
60257;SDS011;46115;44.484;11.314;2023-05-10T14:23:51;7.78;;;3.83;;
60257;SDS011;46115;44.484;11.314;2023-05-10T14:27:53;4.25;;;3.05;;
60257;SDS011;46115;44.484;11.314;2023-05-10T14:31:56;4.63;;;3.50;;
60257;SDS011;46115;44.484;11.314;2023-05-10T14:36:01;6.65;;;3.97;;
60257;SDS011;46115;44.484;11.314;2023-05-10T14:40:05;4.20;;;3.80;;
60257;SDS011;46115;44.484;11.314;2023-05-10T14:44:08;5.63;;;5.13;;
60257;SDS011;46115;44.484;11.314;2023-05-10T14:48:10;6.45;;;5.82;;
60257;SDS011;46115;44.484;11.314;2023-05-10T14:52:17;7.20;;;6.40;;
60257;SDS011;46115;44.484;11.314;2023-05-10T14:56:19;7.45;;;6.75;;
60257;SDS011;46115;44.484;11.314;2023-05-10T15:00:22;7.80;;;7.05;;
60257;SDS011;46115;44.484;11.314;2023-05-10T15:04:25;9.43;;;8.52;;
60257;SDS011;46115;44.484;11.314;2023-05-10T15:08:29;7.95;;;7.15;;
60257;SDS011;46115;44.484;11.314;2023-05-10T15:12:31;8.05;;;7.25;;
60257;SDS011;46115;44.484;11.314;2023-05-10T15:16:34;9.30;;;8.40;;
60257;SDS011;46115;44.484;11.314;2023-05-10T15:20:36;8.77;;;7.97;;
60257;SDS011;46115;44.484;11.314;2023-05-10T15:24:40;8.75;;;7.85;;
60257;SDS011;46115;44.484;11.314;2023-05-10T15:28:42;8.48;;;7.70;;
60257;SDS011;46115;44.484;11.314;2023-05-10T15:32:45;8.95;;;8.07;;
60257;SDS011;46115;44.484;11.314;2023-05-10T15:36:47;9.20;;;8.30;;
60257;SDS011;46115;44.484;11.314;2023-05-10T15:40:51;8.20;;;7.45;;
60257;SDS011;46115;44.484;11.314;2023-05-10T15:44:58;10.82;;;8.43;;
60257;SDS011;46115;44.484;11.314;2023-05-10T15:49:00;9.52;;;8.52;;
60257;SDS011;46115;44.484;11.314;2023-05-10T15:53:03;10.68;;;9.65;;
60257;SDS011;46115;44.484;11.314;2023-05-10T15:57:07;11.00;;;10.00;;
60257;SDS011;46115;44.484;11.314;2023-05-10T16:01:09;11.38;;;10.20;;
60257;SDS011;46115;44.484;11.314;2023-05-10T16:05:12;11.10;;;9.82;;
60257;SDS011;46115;44.484;11.314;2023-05-10T16:09:15;9.73;;;8.82;;
60257;SDS011;46115;44.484;11.314;2023-05-10T16:13:19;9.93;;;9.02;;
60257;SDS011;46115;44.484;11.314;2023-05-10T16:17:21;14.73;;;10.02;;
60257;SDS011;46115;44.484;11.314;2023-05-10T16:21:23;9.73;;;8.82;;
60257;SDS011;46115;44.484;11.314;2023-05-10T16:25:26;9.10;;;8.30;;
60257;SDS011;46115;44.484;11.314;2023-05-10T16:29:30;9.20;;;8.32;;
60257;SDS011;46115;44.484;11.314;2023-05-10T16:33:32;11.38;;;10.18;;
60257;SDS011;46115;44.484;11.314;2023-05-10T16:37:35;10.25;;;9.27;;
60257;SDS011;46115;44.484;11.314;2023-05-10T16:41:37;9.82;;;8.82;;
60257;SDS011;46115;44.484;11.314;2023-05-10T16:45:41;11.65;;;9.63;;
60257;SDS011;46115;44.484;11.314;2023-05-10T16:49:43;8.88;;;7.97;;
60257;SDS011;46115;44.484;11.314;2023-05-10T16:53:46;9.35;;;8.45;;
60257;SDS011;46115;44.484;11.314;2023-05-10T16:57:48;9.43;;;8.48;;
60257;SDS011;46115;44.484;11.314;2023-05-10T17:01:52;9.98;;;8.93;;
60257;SDS011;46115;44.484;11.314;2023-05-10T17:05:54;11.45;;;9.63;;
60257;SDS011;46115;44.484;11.314;2023-05-10T17:09:58;10.40;;;9.35;;
60257;SDS011;46115;44.484;11.314;2023-05-10T17:14:01;9.75;;;8.70;;
60257;SDS011;46115;44.484;11.314;2023-05-10T17:18:04;11.07;;;9.98;;
60257;SDS011;46115;44.484;11.314;2023-05-10T17:22:07;13.32;;;11.30;;
60257;SDS011;46115;44.484;11.314;2023-05-10T17:26:10;11.93;;;10.75;;
60257;SDS011;46115;44.484;11.314;2023-05-10T17:30:12;12.73;;;11.23;;
60257;SDS011;46115;44.484;11.314;2023-05-10T17:34:17;12.45;;;10.82;;
60257;SDS011;46115;44.484;11.314;2023-05-10T17:38:19;13.88;;;12.02;;
60257;SDS011;46115;44.484;11.314;2023-05-10T17:42:22;14.23;;;12.73;;
60257;SDS011;46115;44.484;11.314;2023-05-10T17:46:24;15.07;;;13.50;;
60257;SDS011;46115;44.484;11.314;2023-05-10T17:50:28;16.13;;;14.43;;
60257;SDS011;46115;44.484;11.314;2023-05-10T17:54:31;16.05;;;14.35;;
60257;SDS011;46115;44.484;11.314;2023-05-10T17:58:34;18.52;;;14.43;;
60257;SDS011;46115;44.484;11.314;2023-05-10T18:02:38;18.00;;;15.50;;
60257;SDS011;46115;44.484;11.314;2023-05-10T18:06:41;19.40;;;16.63;;
60257;SDS011;46115;44.484;11.314;2023-05-10T18:10:44;19.02;;;16.52;;
60257;SDS011;46115;44.484;11.314;2023-05-10T18:14:46;20.08;;;17.23;;
60257;SDS011;46115;44.484;11.314;2023-05-10T18:18:49;24.80;;;19.77;;
60257;SDS011;46115;44.484;11.314;2023-05-10T18:22:53;20.40;;;18.25;;
60257;SDS011;46115;44.484;11.314;2023-05-10T18:26:56;20.50;;;17.75;;
60257;SDS011;46115;44.484;11.314;2023-05-10T18:30:58;19.80;;;16.30;;
60257;SDS011;46115;44.484;11.314;2023-05-10T18:35:01;18.17;;;16.27;;
60257;SDS011;46115;44.484;11.314;2023-05-10T18:39:05;21.75;;;18.30;;
60257;SDS011;46115;44.484;11.314;2023-05-10T18:43:08;20.30;;;18.13;;
60257;SDS011;46115;44.484;11.314;2023-05-10T18:47:10;22.88;;;19.50;;
60257;SDS011;46115;44.484;11.314;2023-05-10T18:51:13;18.52;;;16.50;;
60257;SDS011;46115;44.484;11.314;2023-05-10T18:55:16;20.30;;;18.30;;
60257;SDS011;46115;44.484;11.314;2023-05-10T18:59:19;20.45;;;18.35;;
60257;SDS011;46115;44.484;11.314;2023-05-10T19:03:21;21.02;;;18.90;;
60257;SDS011;46115;44.484;11.314;2023-05-10T19:07:24;23.80;;;21.27;;
60257;SDS011;46115;44.484;11.314;2023-05-10T19:11:27;25.63;;;19.90;;
60257;SDS011;46115;44.484;11.314;2023-05-10T19:15:32;20.65;;;17.70;;
60257;SDS011;46115;44.484;11.314;2023-05-10T22:06:08;8.57;;;7.75;;
60257;SDS011;46115;44.484;11.314;2023-05-10T22:10:10;8.93;;;8.02;;
60257;SDS011;46115;44.484;11.314;2023-05-10T22:14:13;10.88;;;8.90;;
60257;SDS011;46115;44.484;11.314;2023-05-10T22:18:15;8.82;;;7.93;;
60257;SDS011;46115;44.484;11.314;2023-05-10T22:22:19;10.05;;;6.72;;
60257;SDS011;46115;44.484;11.314;2023-05-10T22:26:22;14.27;;;8.43;;
60257;SDS011;46115;44.484;11.314;2023-05-10T22:30:24;7.03;;;6.22;;
60257;SDS011;46115;44.484;11.314;2023-05-10T22:34:26;7.18;;;6.50;;
60257;SDS011;46115;44.484;11.314;2023-05-10T22:38:30;7.03;;;6.32;;
60257;SDS011;46115;44.484;11.314;2023-05-10T22:42:32;11.27;;;8.75;;
60257;SDS011;46115;44.484;11.314;2023-05-10T22:46:35;6.75;;;6.13;;
60257;SDS011;46115;44.484;11.314;2023-05-10T22:50:37;10.10;;;7.88;;
60257;SDS011;46115;44.484;11.314;2023-05-10T22:54:41;8.02;;;6.53;;
60257;SDS011;46115;44.484;11.314;2023-05-10T22:58:44;9.00;;;7.13;;
60257;SDS011;46115;44.484;11.314;2023-05-10T23:02:46;10.05;;;6.50;;
60257;SDS011;46115;44.484;11.314;2023-05-10T23:06:48;7.50;;;6.70;;
60257;SDS011;46115;44.484;11.314;2023-05-10T23:10:52;7.63;;;6.68;;
60257;SDS011;46115;44.484;11.314;2023-05-10T23:14:54;8.80;;;7.18;;
60257;SDS011;46115;44.484;11.314;2023-05-10T23:18:57;7.88;;;7.07;;
60257;SDS011;46115;44.484;11.314;2023-05-10T23:22:59;8.02;;;5.80;;
60257;SDS011;46115;44.484;11.314;2023-05-10T23:27:03;8.85;;;6.82;;
60257;SDS011;46115;44.484;11.314;2023-05-10T23:31:05;6.55;;;5.57;;
60257;SDS011;46115;44.484;11.314;2023-05-10T23:35:08;8.05;;;6.32;;
60257;SDS011;46115;44.484;11.314;2023-05-10T23:39:10;10.68;;;6.47;;
60257;SDS011;46115;44.484;11.314;2023-05-10T23:43:14;5.93;;;5.35;;
60257;SDS011;46115;44.484;11.314;2023-05-10T23:47:17;9.50;;;7.05;;
60257;SDS011;46115;44.484;11.314;2023-05-10T23:51:19;7.55;;;6.00;;
60257;SDS011;46115;44.484;11.314;2023-05-10T23:55:22;7.05;;;6.35;;
60257;SDS011;46115;44.484;11.314;2023-05-10T23:59:25;10.00;;;7.72;;
